sensor_id;sensor_type;location;lat;lon;timestamp;P1;durP1;ratioP1;P2;durP2;ratioP2
1122;SDS011;548;48.778;9.252;2022-12-18T00:01:15;47.85;;;35.85;;
1122;SDS011;548;48.778;9.252;2022-12-18T00:03:43;46.42;;;35.03;;
1122;SDS011;548;48.778;9.252;2022-12-18T00:06:09;87.00;;;42.70;;
1122;SDS011;548;48.778;9.252;2022-12-18T00:08:36;54.38;;;34.47;;
1122;SDS011;548;48.778;9.252;2022-12-18T00:11:03;62.30;;;40.05;;
1122;SDS011;548;48.778;9.252;2022-12-18T00:13:31;64.68;;;38.70;;
1122;SDS011;548;48.778;9.252;2022-12-18T00:16:01;51.97;;;31.23;;
1122;SDS011;548;48.778;9.252;2022-12-18T00:18:30;55.55;;;36.88;;
1122;SDS011;548;48.778;9.252;2022-12-18T00:21:01;57.03;;;32.38;;
1122;SDS011;548;48.778;9.252;2022-12-18T00:23:29;54.03;;;34.60;;
1122;SDS011;548;48.778;9.252;2022-12-18T00:25:58;62.83;;;34.15;;
1122;SDS011;548;48.778;9.252;2022-12-18T00:28:25;67.13;;;39.42;;
1122;SDS011;548;48.778;9.252;2022-12-18T00:30:58;41.35;;;30.15;;
1122;SDS011;548;48.778;9.252;2022-12-18T00:33:26;78.15;;;43.42;;
1122;SDS011;548;48.778;9.252;2022-12-18T00:35:54;71.80;;;39.72;;
1122;SDS011;548;48.778;9.252;2022-12-18T00:38:26;64.25;;;42.28;;
1122;SDS011;548;48.778;9.252;2022-12-18T00:40:53;30.30;;;25.05;;
1122;SDS011;548;48.778;9.252;2022-12-18T00:43:19;60.70;;;40.20;;
1122;SDS011;548;48.778;9.252;2022-12-18T00:45:45;38.80;;;30.60;;
1122;SDS011;548;48.778;9.252;2022-12-18T00:48:12;47.53;;;33.45;;
1122;SDS011;548;48.778;9.252;2022-12-18T00:50:38;48.28;;;33.00;;
1122;SDS011;548;48.778;9.252;2022-12-18T00:53:07;71.93;;;44.55;;
1122;SDS011;548;48.778;9.252;2022-12-18T00:55:37;71.57;;;40.72;;
1122;SDS011;548;48.778;9.252;2022-12-18T00:58:03;71.20;;;37.35;;
1122;SDS011;548;48.778;9.252;2022-12-18T01:00:30;34.15;;;30.52;;
1122;SDS011;548;48.778;9.252;2022-12-18T01:02:57;51.83;;;32.70;;
1122;SDS011;548;48.778;9.252;2022-12-18T01:05:24;64.95;;;37.25;;
1122;SDS011;548;48.778;9.252;2022-12-18T01:07:51;69.45;;;39.35;;
1122;SDS011;548;48.778;9.252;2022-12-18T01:10:19;56.20;;;36.20;;
1122;SDS011;548;48.778;9.252;2022-12-18T01:12:46;64.82;;;37.33;;
1122;SDS011;548;48.778;9.252;2022-12-18T01:15:13;46.95;;;30.67;;
1122;SDS011;548;48.778;9.252;2022-12-18T01:17:40;29.88;;;27.10;;
1122;SDS011;548;48.778;9.252;2022-12-18T01:20:08;54.78;;;35.67;;
1122;SDS011;548;48.778;9.252;2022-12-18T01:22:36;61.00;;;34.17;;
1122;SDS011;548;48.778;9.252;2022-12-18T01:25:03;55.00;;;33.08;;
1122;SDS011;548;48.778;9.252;2022-12-18T01:27:32;59.22;;;35.90;;
1122;SDS011;548;48.778;9.252;2022-12-18T01:30:00;46.97;;;29.60;;
1122;SDS011;548;48.778;9.252;2022-12-18T01:32:28;59.22;;;32.95;;
1122;SDS011;548;48.778;9.252;2022-12-18T01:34:55;29.73;;;25.48;;
1122;SDS011;548;48.778;9.252;2022-12-18T01:37:22;57.00;;;35.70;;
1122;SDS011;548;48.778;9.252;2022-12-18T01:39:49;38.40;;;32.78;;
1122;SDS011;548;48.778;9.252;2022-12-18T01:42:17;53.45;;;27.73;;
1122;SDS011;548;48.778;9.252;2022-12-18T01:44:54;45.15;;;28.85;;
1122;SDS011;548;48.778;9.252;2022-12-18T01:47:28;47.80;;;27.90;;
1122;SDS011;548;48.778;9.252;2022-12-18T01:50:01;35.78;;;31.08;;
1122;SDS011;548;48.778;9.252;2022-12-18T01:52:31;37.45;;;29.25;;
1122;SDS011;548;48.778;9.252;2022-12-18T01:54:58;50.65;;;34.25;;
1122;SDS011;548;48.778;9.252;2022-12-18T01:57:26;37.80;;;29.98;;
1122;SDS011;548;48.778;9.252;2022-12-18T01:59:56;31.17;;;26.58;;
1122;SDS011;548;48.778;9.252;2022-12-18T02:02:25;43.17;;;24.23;;
1122;SDS011;548;48.778;9.252;2022-12-18T02:04:53;58.85;;;32.20;;
1122;SDS011;548;48.778;9.252;2022-12-18T02:07:22;45.30;;;30.23;;
1122;SDS011;548;48.778;9.252;2022-12-18T02:09:56;34.50;;;30.90;;
1122;SDS011;548;48.778;9.252;2022-12-18T02:12:27;32.17;;;25.25;;
1122;SDS011;548;48.778;9.252;2022-12-18T02:15:02;32.63;;;26.60;;
1122;SDS011;548;48.778;9.252;2022-12-18T02:17:36;34.85;;;25.42;;
1122;SDS011;548;48.778;9.252;2022-12-18T02:20:08;49.25;;;29.58;;
1122;SDS011;548;48.778;9.252;2022-12-18T02:22:42;59.08;;;35.03;;
1122;SDS011;548;48.778;9.252;2022-12-18T02:25:21;28.60;;;25.15;;
1122;SDS011;548;48.778;9.252;2022-12-18T02:27:57;44.75;;;33.58;;
1122;SDS011;548;48.778;9.252;2022-12-18T02:30:26;43.85;;;32.35;;
1122;SDS011;548;48.778;9.252;2022-12-18T02:32:57;60.83;;;33.50;;
1122;SDS011;548;48.778;9.252;2022-12-18T02:35:27;51.60;;;28.15;;
1122;SDS011;548;48.778;9.252;2022-12-18T02:37:56;47.95;;;32.08;;
1122;SDS011;548;48.778;9.252;2022-12-18T02:40:25;62.92;;;38.08;;
1122;SDS011;548;48.778;9.252;2022-12-18T02:42:53;65.57;;;33.58;;
1122;SDS011;548;48.778;9.252;2022-12-18T02:45:21;63.35;;;38.65;;
1122;SDS011;548;48.778;9.252;2022-12-18T02:47:49;47.60;;;31.60;;
1122;SDS011;548;48.778;9.252;2022-12-18T02:50:17;51.97;;;36.22;;
1122;SDS011;548;48.778;9.252;2022-12-18T02:52:51;31.75;;;24.50;;
1122;SDS011;548;48.778;9.252;2022-12-18T02:55:28;33.45;;;27.73;;
1122;SDS011;548;48.778;9.252;2022-12-18T02:58:03;46.35;;;27.52;;
1122;SDS011;548;48.778;9.252;2022-12-18T03:00:39;45.55;;;30.80;;
1122;SDS011;548;48.778;9.252;2022-12-18T03:03:10;45.38;;;30.92;;
1122;SDS011;548;48.778;9.252;2022-12-18T03:05:43;35.45;;;27.52;;
1122;SDS011;548;48.778;9.252;2022-12-18T03:08:15;29.27;;;23.20;;
1122;SDS011;548;48.778;9.252;2022-12-18T03:10:45;24.70;;;21.90;;
1122;SDS011;548;48.778;9.252;2022-12-18T03:13:19;41.03;;;31.08;;
1122;SDS011;548;48.778;9.252;2022-12-18T03:15:52;38.10;;;26.88;;
1122;SDS011;548;48.778;9.252;2022-12-18T03:20:58;34.38;;;27.90;;
1122;SDS011;548;48.778;9.252;2022-12-18T03:23:29;30.67;;;26.80;;
1122;SDS011;548;48.778;9.252;2022-12-18T03:26:01;36.10;;;28.85;;
1122;SDS011;548;48.778;9.252;2022-12-18T03:28:33;35.20;;;25.50;;
1122;SDS011;548;48.778;9.252;2022-12-18T03:31:05;29.33;;;20.85;;
1122;SDS011;548;48.778;9.252;2022-12-18T03:33:37;36.25;;;27.60;;
1122;SDS011;548;48.778;9.252;2022-12-18T03:36:07;40.75;;;30.58;;
1122;SDS011;548;48.778;9.252;2022-12-18T03:38:34;28.92;;;23.33;;
1122;SDS011;548;48.778;9.252;2022-12-18T03:41:03;47.50;;;28.48;;
1122;SDS011;548;48.778;9.252;2022-12-18T03:43:35;50.30;;;31.73;;
1122;SDS011;548;48.778;9.252;2022-12-18T03:46:11;28.15;;;22.90;;
1122;SDS011;548;48.778;9.252;2022-12-18T03:48:43;40.65;;;28.77;;
1122;SDS011;548;48.778;9.252;2022-12-18T03:51:14;42.22;;;31.50;;
1122;SDS011;548;48.778;9.252;2022-12-18T03:53:46;57.58;;;26.25;;
1122;SDS011;548;48.778;9.252;2022-12-18T03:56:17;37.70;;;28.02;;
1122;SDS011;548;48.778;9.252;2022-12-18T03:58:46;32.28;;;25.67;;
1122;SDS011;548;48.778;9.252;2022-12-18T04:01:16;37.00;;;26.83;;
1122;SDS011;548;48.778;9.252;2022-12-18T04:03:44;35.97;;;27.08;;
1122;SDS011;548;48.778;9.252;2022-12-18T04:06:14;31.02;;;24.92;;
1122;SDS011;548;48.778;9.252;2022-12-18T04:08:42;28.70;;;25.95;;
1122;SDS011;548;48.778;9.252;2022-12-18T04:11:10;44.90;;;35.80;;
1122;SDS011;548;48.778;9.252;2022-12-18T04:13:37;35.05;;;29.85;;
1122;SDS011;548;48.778;9.252;2022-12-18T04:16:05;23.05;;;19.83;;
1122;SDS011;548;48.778;9.252;2022-12-18T04:18:33;33.03;;;28.13;;
1122;SDS011;548;48.778;9.252;2022-12-18T04:21:00;33.75;;;25.40;;
1122;SDS011;548;48.778;9.252;2022-12-18T04:23:27;38.08;;;29.77;;
1122;SDS011;548;48.778;9.252;2022-12-18T04:25:54;27.02;;;24.48;;
1122;SDS011;548;48.778;9.252;2022-12-18T04:28:21;49.53;;;29.55;;
1122;SDS011;548;48.778;9.252;2022-12-18T04:30:48;38.83;;;27.42;;
1122;SDS011;548;48.778;9.252;2022-12-18T04:33:14;41.55;;;28.23;;
1122;SDS011;548;48.778;9.252;2022-12-18T04:35:43;29.05;;;24.70;;
1122;SDS011;548;48.778;9.252;2022-12-18T04:38:09;34.50;;;26.15;;
1122;SDS011;548;48.778;9.252;2022-12-18T04:40:36;57.67;;;31.20;;
1122;SDS011;548;48.778;9.252;2022-12-18T04:43:03;42.30;;;30.42;;
1122;SDS011;548;48.778;9.252;2022-12-18T04:45:30;54.90;;;33.38;;
1122;SDS011;548;48.778;9.252;2022-12-18T04:47:58;29.75;;;26.55;;
1122;SDS011;548;48.778;9.252;2022-12-18T04:50:24;50.55;;;29.88;;
1122;SDS011;548;48.778;9.252;2022-12-18T04:52:53;25.95;;;23.33;;
1122;SDS011;548;48.778;9.252;2022-12-18T04:55:21;37.33;;;24.27;;
1122;SDS011;548;48.778;9.252;2022-12-18T04:57:50;27.05;;;23.75;;
1122;SDS011;548;48.778;9.252;2022-12-18T05:00:17;23.08;;;20.60;;
1122;SDS011;548;48.778;9.252;2022-12-18T05:02:44;36.33;;;24.92;;
1122;SDS011;548;48.778;9.252;2022-12-18T05:05:11;26.70;;;22.27;;
1122;SDS011;548;48.778;9.252;2022-12-18T05:07:38;34.80;;;25.15;;
1122;SDS011;548;48.778;9.252;2022-12-18T05:10:06;22.83;;;20.35;;
1122;SDS011;548;48.778;9.252;2022-12-18T05:12:33;27.02;;;20.17;;
1122;SDS011;548;48.778;9.252;2022-12-18T05:15:21;25.73;;;23.45;;
1122;SDS011;548;48.778;9.252;2022-12-18T05:17:47;42.95;;;27.35;;
1122;SDS011;548;48.778;9.252;2022-12-18T05:20:14;23.42;;;20.13;;
1122;SDS011;548;48.778;9.252;2022-12-18T05:22:41;27.45;;;23.13;;
1122;SDS011;548;48.778;9.252;2022-12-18T05:25:09;33.35;;;22.00;;
1122;SDS011;548;48.778;9.252;2022-12-18T05:27:36;22.83;;;20.92;;
1122;SDS011;548;48.778;9.252;2022-12-18T05:30:03;26.58;;;23.58;;
1122;SDS011;548;48.778;9.252;2022-12-18T05:32:30;18.08;;;16.42;;
1122;SDS011;548;48.778;9.252;2022-12-18T05:34:57;22.95;;;20.63;;
1122;SDS011;548;48.778;9.252;2022-12-18T05:37:23;32.50;;;19.42;;
1122;SDS011;548;48.778;9.252;2022-12-18T05:39:50;23.85;;;21.98;;
1122;SDS011;548;48.778;9.252;2022-12-18T05:42:18;29.73;;;23.75;;
1122;SDS011;548;48.778;9.252;2022-12-18T05:44:45;24.83;;;22.35;;
1122;SDS011;548;48.778;9.252;2022-12-18T05:47:12;23.02;;;20.92;;
1122;SDS011;548;48.778;9.252;2022-12-18T05:49:38;23.05;;;20.75;;
1122;SDS011;548;48.778;9.252;2022-12-18T05:52:05;27.08;;;20.67;;
1122;SDS011;548;48.778;9.252;2022-12-18T05:54:32;36.10;;;25.13;;
1122;SDS011;548;48.778;9.252;2022-12-18T05:56:59;33.78;;;24.63;;
1122;SDS011;548;48.778;9.252;2022-12-18T05:59:27;27.15;;;22.25;;
1122;SDS011;548;48.778;9.252;2022-12-18T06:01:53;25.83;;;22.55;;
1122;SDS011;548;48.778;9.252;2022-12-18T06:04:20;22.90;;;20.65;;
1122;SDS011;548;48.778;9.252;2022-12-18T06:06:47;25.42;;;22.92;;
1122;SDS011;548;48.778;9.252;2022-12-18T06:09:13;33.10;;;22.33;;
1122;SDS011;548;48.778;9.252;2022-12-18T06:11:40;19.65;;;18.10;;
1122;SDS011;548;48.778;9.252;2022-12-18T06:14:08;39.72;;;26.52;;
1122;SDS011;548;48.778;9.252;2022-12-18T06:16:37;31.63;;;24.45;;
1122;SDS011;548;48.778;9.252;2022-12-18T06:19:04;24.58;;;22.02;;
1122;SDS011;548;48.778;9.252;2022-12-18T06:21:31;26.13;;;18.85;;
1122;SDS011;548;48.778;9.252;2022-12-18T06:23:59;21.60;;;19.50;;
1122;SDS011;548;48.778;9.252;2022-12-18T06:26:26;22.70;;;20.67;;
1122;SDS011;548;48.778;9.252;2022-12-18T06:28:53;32.70;;;23.55;;
1122;SDS011;548;48.778;9.252;2022-12-18T06:31:20;29.80;;;21.05;;
1122;SDS011;548;48.778;9.252;2022-12-18T06:33:48;24.35;;;21.05;;
1122;SDS011;548;48.778;9.252;2022-12-18T06:36:15;33.70;;;23.38;;
1122;SDS011;548;48.778;9.252;2022-12-18T06:38:42;22.45;;;20.30;;
1122;SDS011;548;48.778;9.252;2022-12-18T06:41:10;22.70;;;20.55;;
1122;SDS011;548;48.778;9.252;2022-12-18T06:43:38;19.75;;;17.88;;
1122;SDS011;548;48.778;9.252;2022-12-18T06:46:05;18.77;;;16.90;;
1122;SDS011;548;48.778;9.252;2022-12-18T06:48:32;21.55;;;19.45;;
1122;SDS011;548;48.778;9.252;2022-12-18T06:51:00;31.67;;;24.05;;
1122;SDS011;548;48.778;9.252;2022-12-18T06:53:27;27.50;;;21.67;;
1122;SDS011;548;48.778;9.252;2022-12-18T06:55:59;25.85;;;18.30;;
1122;SDS011;548;48.778;9.252;2022-12-18T06:58:27;27.00;;;19.38;;
1122;SDS011;548;48.778;9.252;2022-12-18T07:00:54;24.88;;;22.38;;
1122;SDS011;548;48.778;9.252;2022-12-18T07:03:26;32.47;;;26.50;;
1122;SDS011;548;48.778;9.252;2022-12-18T07:05:52;23.30;;;21.10;;
1122;SDS011;548;48.778;9.252;2022-12-18T07:08:20;20.15;;;18.40;;
1122;SDS011;548;48.778;9.252;2022-12-18T07:10:47;23.08;;;20.80;;
1122;SDS011;548;48.778;9.252;2022-12-18T07:13:15;20.60;;;18.92;;
1122;SDS011;548;48.778;9.252;2022-12-18T07:15:42;25.98;;;18.13;;
1122;SDS011;548;48.778;9.252;2022-12-18T07:18:09;24.63;;;18.55;;
1122;SDS011;548;48.778;9.252;2022-12-18T07:20:36;18.30;;;16.60;;
1122;SDS011;548;48.778;9.252;2022-12-18T07:23:03;24.60;;;21.13;;
1122;SDS011;548;48.778;9.252;2022-12-18T07:25:31;27.13;;;21.50;;
1122;SDS011;548;48.778;9.252;2022-12-18T07:27:59;23.83;;;18.70;;
1122;SDS011;548;48.778;9.252;2022-12-18T07:30:26;20.27;;;18.27;;
1122;SDS011;548;48.778;9.252;2022-12-18T07:32:53;22.98;;;20.35;;
1122;SDS011;548;48.778;9.252;2022-12-18T07:35:20;21.70;;;19.75;;
1122;SDS011;548;48.778;9.252;2022-12-18T07:37:46;19.85;;;17.77;;
1122;SDS011;548;48.778;9.252;2022-12-18T07:40:13;27.27;;;22.15;;
1122;SDS011;548;48.778;9.252;2022-12-18T07:42:41;28.10;;;22.27;;
1122;SDS011;548;48.778;9.252;2022-12-18T07:45:08;29.65;;;22.42;;
1122;SDS011;548;48.778;9.252;2022-12-18T07:47:35;29.27;;;23.27;;
1122;SDS011;548;48.778;9.252;2022-12-18T07:50:03;32.35;;;23.95;;
1122;SDS011;548;48.778;9.252;2022-12-18T07:52:31;26.05;;;21.05;;
1122;SDS011;548;48.778;9.252;2022-12-18T07:54:57;29.15;;;21.10;;
1122;SDS011;548;48.778;9.252;2022-12-18T07:57:24;35.78;;;26.52;;
1122;SDS011;548;48.778;9.252;2022-12-18T07:59:52;33.90;;;25.73;;
1122;SDS011;548;48.778;9.252;2022-12-18T08:02:19;32.83;;;21.13;;
1122;SDS011;548;48.778;9.252;2022-12-18T08:04:45;33.70;;;25.23;;
1122;SDS011;548;48.778;9.252;2022-12-18T08:07:12;30.25;;;22.92;;
1122;SDS011;548;48.778;9.252;2022-12-18T08:09:39;40.35;;;26.25;;
1122;SDS011;548;48.778;9.252;2022-12-18T08:12:06;44.13;;;24.00;;
1122;SDS011;548;48.778;9.252;2022-12-18T08:14:32;22.95;;;20.90;;
1122;SDS011;548;48.778;9.252;2022-12-18T08:17:00;22.65;;;19.70;;
1122;SDS011;548;48.778;9.252;2022-12-18T08:19:27;29.52;;;22.40;;
1122;SDS011;548;48.778;9.252;2022-12-18T08:21:54;36.28;;;22.92;;
1122;SDS011;548;48.778;9.252;2022-12-18T08:24:21;25.77;;;20.67;;
1122;SDS011;548;48.778;9.252;2022-12-18T08:26:48;26.83;;;23.13;;
1122;SDS011;548;48.778;9.252;2022-12-18T08:29:15;34.10;;;26.95;;
1122;SDS011;548;48.778;9.252;2022-12-18T08:31:42;25.02;;;21.60;;
1122;SDS011;548;48.778;9.252;2022-12-18T08:34:10;31.08;;;24.58;;
1122;SDS011;548;48.778;9.252;2022-12-18T08:36:37;42.60;;;28.65;;
1122;SDS011;548;48.778;9.252;2022-12-18T08:39:03;29.73;;;23.08;;
1122;SDS011;548;48.778;9.252;2022-12-18T08:41:30;38.78;;;26.67;;
1122;SDS011;548;48.778;9.252;2022-12-18T08:43:57;40.90;;;26.85;;
1122;SDS011;548;48.778;9.252;2022-12-18T08:46:42;36.53;;;25.45;;
1122;SDS011;548;48.778;9.252;2022-12-18T08:49:11;29.02;;;23.25;;
1122;SDS011;548;48.778;9.252;2022-12-18T08:51:38;28.85;;;22.98;;
1122;SDS011;548;48.778;9.252;2022-12-18T08:54:05;24.65;;;21.90;;
1122;SDS011;548;48.778;9.252;2022-12-18T08:56:32;32.72;;;27.88;;
1122;SDS011;548;48.778;9.252;2022-12-18T08:58:59;22.77;;;20.35;;
1122;SDS011;548;48.778;9.252;2022-12-18T09:01:26;29.35;;;22.90;;
1122;SDS011;548;48.778;9.252;2022-12-18T09:03:53;30.48;;;24.45;;
1122;SDS011;548;48.778;9.252;2022-12-18T09:06:21;29.43;;;23.30;;
1122;SDS011;548;48.778;9.252;2022-12-18T09:08:49;41.40;;;29.88;;
1122;SDS011;548;48.778;9.252;2022-12-18T09:11:18;27.13;;;23.43;;
1122;SDS011;548;48.778;9.252;2022-12-18T09:13:46;36.40;;;27.90;;
1122;SDS011;548;48.778;9.252;2022-12-18T09:16:13;26.33;;;23.63;;
1122;SDS011;548;48.778;9.252;2022-12-18T09:18:40;37.13;;;25.43;;
1122;SDS011;548;48.778;9.252;2022-12-18T09:21:07;30.90;;;25.77;;
1122;SDS011;548;48.778;9.252;2022-12-18T09:23:36;36.93;;;28.07;;
1122;SDS011;548;48.778;9.252;2022-12-18T09:26:03;34.63;;;28.07;;
1122;SDS011;548;48.778;9.252;2022-12-18T09:28:30;36.43;;;28.97;;
1122;SDS011;548;48.778;9.252;2022-12-18T09:30:57;44.13;;;29.97;;
1122;SDS011;548;48.778;9.252;2022-12-18T09:33:24;37.90;;;29.53;;
1122;SDS011;548;48.778;9.252;2022-12-18T09:35:50;41.53;;;29.10;;
1122;SDS011;548;48.778;9.252;2022-12-18T09:38:18;45.53;;;30.27;;
1122;SDS011;548;48.778;9.252;2022-12-18T09:40:48;34.27;;;28.87;;
1122;SDS011;548;48.778;9.252;2022-12-18T09:43:18;42.37;;;29.77;;
1122;SDS011;548;48.778;9.252;2022-12-18T09:45:49;36.50;;;28.93;;
1122;SDS011;548;48.778;9.252;2022-12-18T09:48:21;29.77;;;24.73;;
1122;SDS011;548;48.778;9.252;2022-12-18T09:50:52;36.80;;;26.20;;
1122;SDS011;548;48.778;9.252;2022-12-18T09:53:24;35.67;;;24.87;;
1122;SDS011;548;48.778;9.252;2022-12-18T09:55:57;40.30;;;29.27;;
1122;SDS011;548;48.778;9.252;2022-12-18T09:58:26;26.97;;;24.07;;
1122;SDS011;548;48.778;9.252;2022-12-18T10:00:56;39.17;;;27.87;;
1122;SDS011;548;48.778;9.252;2022-12-18T10:03:23;43.07;;;29.17;;
1122;SDS011;548;48.778;9.252;2022-12-18T10:05:54;33.90;;;27.00;;
1122;SDS011;548;48.778;9.252;2022-12-18T10:08:29;40.27;;;30.37;;
1122;SDS011;548;48.778;9.252;2022-12-18T10:11:09;38.93;;;30.03;;
1122;SDS011;548;48.778;9.252;2022-12-18T10:13:48;34.10;;;28.63;;
1122;SDS011;548;48.778;9.252;2022-12-18T10:16:23;40.30;;;29.20;;
1122;SDS011;548;48.778;9.252;2022-12-18T10:18:58;36.63;;;29.13;;
1122;SDS011;548;48.778;9.252;2022-12-18T10:21:38;39.97;;;31.17;;
1122;SDS011;548;48.778;9.252;2022-12-18T10:24:12;39.27;;;29.50;;
1122;SDS011;548;48.778;9.252;2022-12-18T10:26:48;36.50;;;26.70;;
1122;SDS011;548;48.778;9.252;2022-12-18T10:29:16;38.93;;;29.47;;
1122;SDS011;548;48.778;9.252;2022-12-18T10:31:43;39.00;;;29.07;;
1122;SDS011;548;48.778;9.252;2022-12-18T10:34:10;41.10;;;28.23;;
1122;SDS011;548;48.778;9.252;2022-12-18T10:36:37;38.37;;;30.67;;
1122;SDS011;548;48.778;9.252;2022-12-18T10:39:16;49.27;;;30.90;;
1122;SDS011;548;48.778;9.252;2022-12-18T10:41:44;36.60;;;29.77;;
1122;SDS011;548;48.778;9.252;2022-12-18T10:44:22;42.53;;;30.87;;
1122;SDS011;548;48.778;9.252;2022-12-18T10:46:53;37.00;;;27.17;;
1122;SDS011;548;48.778;9.252;2022-12-18T10:49:28;37.50;;;27.67;;
1122;SDS011;548;48.778;9.252;2022-12-18T10:52:07;36.47;;;29.60;;
1122;SDS011;548;48.778;9.252;2022-12-18T10:54:45;41.97;;;32.03;;
1122;SDS011;548;48.778;9.252;2022-12-18T10:57:15;41.60;;;32.40;;
1122;SDS011;548;48.778;9.252;2022-12-18T10:59:51;41.57;;;28.70;;
1122;SDS011;548;48.778;9.252;2022-12-18T11:02:25;35.37;;;29.57;;
1122;SDS011;548;48.778;9.252;2022-12-18T11:04:54;36.53;;;29.40;;
1122;SDS011;548;48.778;9.252;2022-12-18T11:07:20;36.87;;;29.10;;
1122;SDS011;548;48.778;9.252;2022-12-18T11:09:59;35.10;;;30.80;;
1122;SDS011;548;48.778;9.252;2022-12-18T11:12:26;34.27;;;28.87;;
1122;SDS011;548;48.778;9.252;2022-12-18T11:14:59;37.13;;;27.93;;
1122;SDS011;548;48.778;9.252;2022-12-18T11:17:27;35.27;;;27.60;;
1122;SDS011;548;48.778;9.252;2022-12-18T11:19:57;32.07;;;26.20;;
1122;SDS011;548;48.778;9.252;2022-12-18T11:22:26;35.83;;;28.00;;
1122;SDS011;548;48.778;9.252;2022-12-18T11:24:55;37.50;;;29.27;;
1122;SDS011;548;48.778;9.252;2022-12-18T11:27:24;37.10;;;29.07;;
1122;SDS011;548;48.778;9.252;2022-12-18T11:29:52;39.87;;;30.70;;
1122;SDS011;548;48.778;9.252;2022-12-18T11:32:34;38.93;;;31.23;;
1122;SDS011;548;48.778;9.252;2022-12-18T11:35:07;35.03;;;29.57;;
1122;SDS011;548;48.778;9.252;2022-12-18T11:37:41;41.40;;;29.77;;
1122;SDS011;548;48.778;9.252;2022-12-18T11:40:14;38.40;;;30.93;;
1122;SDS011;548;48.778;9.252;2022-12-18T11:42:45;38.80;;;29.87;;
1122;SDS011;548;48.778;9.252;2022-12-18T11:45:23;34.80;;;30.93;;
1122;SDS011;548;48.778;9.252;2022-12-18T11:47:55;41.40;;;32.13;;
1122;SDS011;548;48.778;9.252;2022-12-18T11:50:28;38.67;;;31.03;;
1122;SDS011;548;48.778;9.252;2022-12-18T11:52:59;43.23;;;31.73;;
1122;SDS011;548;48.778;9.252;2022-12-18T11:55:30;43.77;;;33.47;;
1122;SDS011;548;48.778;9.252;2022-12-18T11:58:03;40.20;;;31.93;;
1122;SDS011;548;48.778;9.252;2022-12-18T12:00:38;46.10;;;32.33;;
1122;SDS011;548;48.778;9.252;2022-12-18T12:03:24;40.80;;;30.73;;
1122;SDS011;548;48.778;9.252;2022-12-18T12:06:07;39.63;;;32.70;;
1122;SDS011;548;48.778;9.252;2022-12-18T12:08:43;37.97;;;29.80;;
1122;SDS011;548;48.778;9.252;2022-12-18T12:11:20;36.57;;;30.60;;
1122;SDS011;548;48.778;9.252;2022-12-18T12:13:56;42.23;;;30.97;;
1122;SDS011;548;48.778;9.252;2022-12-18T12:16:34;43.73;;;30.80;;
1122;SDS011;548;48.778;9.252;2022-12-18T12:19:13;37.40;;;31.00;;
1122;SDS011;548;48.778;9.252;2022-12-18T12:21:51;43.13;;;31.07;;
1122;SDS011;548;48.778;9.252;2022-12-18T12:24:27;40.90;;;30.40;;
1122;SDS011;548;48.778;9.252;2022-12-18T12:27:13;43.67;;;32.87;;
1122;SDS011;548;48.778;9.252;2022-12-18T12:29:49;39.37;;;31.87;;
1122;SDS011;548;48.778;9.252;2022-12-18T12:32:27;42.03;;;31.77;;
1122;SDS011;548;48.778;9.252;2022-12-18T12:35:10;41.57;;;31.67;;
1122;SDS011;548;48.778;9.252;2022-12-18T12:37:45;47.70;;;30.40;;
1122;SDS011;548;48.778;9.252;2022-12-18T12:40:22;40.27;;;33.03;;
1122;SDS011;548;48.778;9.252;2022-12-18T12:42:54;47.67;;;34.80;;
1122;SDS011;548;48.778;9.252;2022-12-18T12:45:41;37.43;;;29.07;;
1122;SDS011;548;48.778;9.252;2022-12-18T12:48:15;41.27;;;30.37;;
1122;SDS011;548;48.778;9.252;2022-12-18T12:50:48;48.33;;;34.63;;
1122;SDS011;548;48.778;9.252;2022-12-18T12:53:19;43.57;;;33.40;;
1122;SDS011;548;48.778;9.252;2022-12-18T12:55:51;40.27;;;31.43;;
1122;SDS011;548;48.778;9.252;2022-12-18T12:58:21;43.20;;;33.37;;
1122;SDS011;548;48.778;9.252;2022-12-18T13:00:57;45.67;;;29.70;;
1122;SDS011;548;48.778;9.252;2022-12-18T13:03:33;40.90;;;30.30;;
1122;SDS011;548;48.778;9.252;2022-12-18T13:06:11;42.47;;;32.83;;
1122;SDS011;548;48.778;9.252;2022-12-18T13:08:52;41.70;;;29.93;;
1122;SDS011;548;48.778;9.252;2022-12-18T13:14:29;40.13;;;29.80;;
1122;SDS011;548;48.778;9.252;2022-12-18T13:17:13;37.37;;;27.33;;
1122;SDS011;548;48.778;9.252;2022-12-18T13:20:02;48.13;;;29.00;;
1122;SDS011;548;48.778;9.252;2022-12-18T13:22:34;45.10;;;30.30;;
1122;SDS011;548;48.778;9.252;2022-12-18T13:25:02;39.50;;;29.57;;
1122;SDS011;548;48.778;9.252;2022-12-18T13:27:56;37.53;;;29.97;;
1122;SDS011;548;48.778;9.252;2022-12-18T13:30:45;41.27;;;29.13;;
1122;SDS011;548;48.778;9.252;2022-12-18T13:36:16;43.80;;;33.10;;
1122;SDS011;548;48.778;9.252;2022-12-18T13:39:24;49.27;;;34.13;;
1122;SDS011;548;48.778;9.252;2022-12-18T13:45:36;46.10;;;33.33;;
1122;SDS011;548;48.778;9.252;2022-12-18T13:48:19;37.80;;;28.87;;
1122;SDS011;548;48.778;9.252;2022-12-18T13:50:57;40.37;;;28.50;;
1122;SDS011;548;48.778;9.252;2022-12-18T13:53:28;47.80;;;30.30;;
1122;SDS011;548;48.778;9.252;2022-12-18T13:56:00;42.53;;;30.70;;
1122;SDS011;548;48.778;9.252;2022-12-18T13:58:28;42.37;;;32.70;;
1122;SDS011;548;48.778;9.252;2022-12-18T14:00:54;38.40;;;29.90;;
1122;SDS011;548;48.778;9.252;2022-12-18T14:03:22;41.10;;;31.70;;
1122;SDS011;548;48.778;9.252;2022-12-18T14:05:52;45.87;;;32.97;;
1122;SDS011;548;48.778;9.252;2022-12-18T14:08:22;35.90;;;29.23;;
1122;SDS011;548;48.778;9.252;2022-12-18T14:10:51;39.67;;;30.07;;
1122;SDS011;548;48.778;9.252;2022-12-18T14:13:20;42.73;;;31.97;;
1122;SDS011;548;48.778;9.252;2022-12-18T14:15:52;44.13;;;31.80;;
1122;SDS011;548;48.778;9.252;2022-12-18T14:18:21;42.33;;;30.67;;
1122;SDS011;548;48.778;9.252;2022-12-18T14:20:50;44.10;;;32.83;;
1122;SDS011;548;48.778;9.252;2022-12-18T14:23:29;41.87;;;30.27;;
1122;SDS011;548;48.778;9.252;2022-12-18T14:25:57;37.80;;;30.30;;
1122;SDS011;548;48.778;9.252;2022-12-18T14:28:26;46.40;;;32.93;;
1122;SDS011;548;48.778;9.252;2022-12-18T14:30:53;48.37;;;32.57;;
1122;SDS011;548;48.778;9.252;2022-12-18T14:33:21;44.70;;;32.77;;
1122;SDS011;548;48.778;9.252;2022-12-18T14:35:54;44.30;;;31.07;;
1122;SDS011;548;48.778;9.252;2022-12-18T14:38:24;42.93;;;29.60;;
1122;SDS011;548;48.778;9.252;2022-12-18T14:40:53;43.10;;;32.27;;
1122;SDS011;548;48.778;9.252;2022-12-18T14:43:21;49.90;;;36.10;;
1122;SDS011;548;48.778;9.252;2022-12-18T14:45:49;48.50;;;28.63;;
1122;SDS011;548;48.778;9.252;2022-12-18T14:48:17;44.40;;;33.00;;
1122;SDS011;548;48.778;9.252;2022-12-18T14:50:53;46.17;;;34.13;;
1122;SDS011;548;48.778;9.252;2022-12-18T14:53:22;48.60;;;33.97;;
1122;SDS011;548;48.778;9.252;2022-12-18T14:55:54;42.67;;;32.90;;
1122;SDS011;548;48.778;9.252;2022-12-18T14:58:21;42.73;;;32.13;;
1122;SDS011;548;48.778;9.252;2022-12-18T15:00:49;45.17;;;31.47;;
1122;SDS011;548;48.778;9.252;2022-12-18T15:03:17;48.13;;;33.33;;
1122;SDS011;548;48.778;9.252;2022-12-18T15:05:45;53.40;;;35.87;;
1122;SDS011;548;48.778;9.252;2022-12-18T15:08:27;46.00;;;35.37;;
1122;SDS011;548;48.778;9.252;2022-12-18T15:10:56;46.47;;;31.53;;
1122;SDS011;548;48.778;9.252;2022-12-18T15:13:23;42.37;;;33.50;;
1122;SDS011;548;48.778;9.252;2022-12-18T15:15:52;44.67;;;31.13;;
1122;SDS011;548;48.778;9.252;2022-12-18T15:18:21;44.07;;;33.63;;
1122;SDS011;548;48.778;9.252;2022-12-18T15:20:54;50.87;;;32.70;;
1122;SDS011;548;48.778;9.252;2022-12-18T15:23:23;46.30;;;32.03;;
1122;SDS011;548;48.778;9.252;2022-12-18T15:25:54;47.10;;;34.00;;
1122;SDS011;548;48.778;9.252;2022-12-18T15:28:24;37.53;;;31.03;;
1122;SDS011;548;48.778;9.252;2022-12-18T15:31:00;42.87;;;33.10;;